Air Navigation Services of Czech Republic
Airport: LKKV Updated:  25.07.2017 12:08:11  UTC
 METAR LKKV 25.07. 12:00 ...
METAR LKKV 251200Z 24011G23KT 190V290 9999 SCT020 SCT038 14/09 Q1004 RMK REG QNH 1000=
 TAF LKKV 25.07. 11:00 ...
TAF LKKV 251100Z 2512/2618 24010KT 9999 BKN025      TEMPO 2512/2519 26014G24KT 7000 SHRA SCT013CB BKN020      BECMG 2519/2522 BKN020      TEMPO 2522/2612 6000 -RA BKN013      BECMG 2612/2615 29010KT 3000 RA SCT007 BKN010=